Time;durP1;ratioP1;P1;durP2;ratioP2;P2;SDS_P1;SDS_P2;PMS_P1;PMS_P2;Temp;Humidity;BMP_temperature;BMP_pressure;BME280_temperature;BME280_humidity;BME280_pressure;Samples;Min_cycle;Max_cycle;Signal;HPM_P1;HPM_P2
2022/10/23 00:00:15;;;;;;;33.83;22.87;;;;;;;8.36;100.00;99161.31;1727779;81;21140;-70
2022/10/23 00:02:43;;;;;;;31.07;23.77;;;;;;;8.37;100.00;99162.56;1719600;82;21053;-70
2022/10/23 00:05:10;;;;;;;29.30;20.65;;;;;;;8.37;100.00;99162.56;1729167;81;21052;-70
2022/10/23 00:07:37;;;;;;;24.92;19.45;;;;;;;8.39;100.00;99161.20;1729589;82;21485;-69
2022/10/23 00:10:08;;;;;;;27.67;20.60;;;;;;;8.41;100.00;99153.74;1738007;82;21010;-70
2022/10/23 00:12:35;;;;;;;33.15;21.68;;;;;;;8.42;100.00;99146.81;1724744;82;21147;-70
2022/10/23 00:15:01;;;;;;;31.17;22.90;;;;;;;8.44;100.00;99137.23;1731407;82;20999;-70
2022/10/23 00:17:31;;;;;;;34.23;23.65;;;;;;;8.44;100.00;99130.76;1724913;81;20991;-70
2022/10/23 00:19:58;;;;;;;37.42;23.77;;;;;;;8.44;100.00;99130.30;1728912;82;21003;-70
2022/10/23 00:22:24;;;;;;;28.25;20.10;;;;;;;8.45;100.00;99131.16;1723992;81;21605;-69
2022/10/23 00:24:51;;;;;;;24.95;18.65;;;;;;;8.46;100.00;99132.39;1729885;81;21116;-70
2022/10/23 00:27:18;;;;;;;27.35;20.43;;;;;;;8.47;100.00;99129.35;1717450;82;20954;-69
2022/10/23 00:29:44;;;;;;;34.65;23.07;;;;;;;8.47;100.00;99125.46;1741670;81;21365;-71
2022/10/23 00:32:11;;;;;;;28.65;21.12;;;;;;;8.45;100.00;99121.62;1742844;82;21435;-70
2022/10/23 00:34:37;;;;;;;27.87;21.23;;;;;;;8.45;100.00;99111.27;1730877;82;21009;-70
2022/10/23 00:37:04;;;;;;;29.12;20.20;;;;;;;8.45;100.00;99114.30;1725370;82;22030;-70
2022/10/23 00:39:30;;;;;;;25.12;18.25;;;;;;;8.44;100.00;99108.28;1722799;81;21407;-69
2022/10/23 00:41:57;;;;;;;28.90;19.75;;;;;;;8.44;100.00;99102.25;1723288;81;20997;-70
2022/10/23 00:44:32;;;;;;;22.95;19.02;;;;;;;8.44;100.00;99089.30;1740611;81;20993;-69
2022/10/23 00:46:59;;;;;;;25.70;19.62;;;;;;;8.42;100.00;99090.64;1725894;81;21568;-69
2022/10/23 00:49:27;;;;;;;28.83;19.05;;;;;;;8.40;100.00;99088.56;1726291;81;21238;-69
2022/10/23 00:51:57;;;;;;;25.57;18.62;;;;;;;8.41;100.00;99097.18;1738862;82;21482;-70
2022/10/23 00:54:26;;;;;;;27.73;18.20;;;;;;;8.41;100.00;99093.30;1738013;81;20983;-70
2022/10/23 00:56:57;;;;;;;24.82;18.10;;;;;;;8.42;100.00;99091.09;1739884;81;21006;-70
2022/10/23 00:59:24;;;;;;;27.00;19.12;;;;;;;8.41;100.00;99096.73;1731627;82;21529;-69
2022/10/23 01:01:51;;;;;;;30.52;19.42;;;;;;;8.41;100.00;99093.30;1749135;81;21149;-69
2022/10/23 01:04:17;;;;;;;25.48;18.82;;;;;;;8.40;100.00;99094.20;1733599;81;21003;-69
2022/10/23 01:07:16;;;;;;;27.22;18.02;;;;;;;8.38;100.00;99092.98;1724924;81;21004;-69
2022/10/23 01:09:59;;;;;;;22.60;17.00;;;;;;;8.39;100.00;99093.83;1735085;80;21026;-69
2022/10/23 01:12:53;;;;;;;23.73;18.00;;;;;;;8.38;100.00;99099.91;1738410;81;21231;-69
2022/10/23 01:15:32;;;;;;;30.10;19.73;;;;;;;8.36;100.00;99103.86;1730665;81;21138;-69
2022/10/23 01:18:12;;;;;;;23.12;18.27;;;;;;;8.37;100.00;99107.30;1735278;81;20998;-70
2022/10/23 01:20:56;;;;;;;20.57;16.85;;;;;;;8.36;100.00;99107.75;1726606;81;21388;-69
2022/10/23 01:23:42;;;;;;;22.80;16.45;;;;;;;8.38;100.00;99115.47;1734167;82;21002;-69
2022/10/23 01:27:05;;;;;;;26.70;19.57;;;;;;;8.34;100.00;99117.77;1706579;83;21467;-70
2022/10/23 01:29:46;;;;;;;32.75;23.25;;;;;;;8.32;100.00;99124.72;1707332;83;21948;-70
2022/10/23 01:32:36;;;;;;;36.28;25.32;;;;;;;8.27;100.00;99127.48;1735544;82;21407;-70
2022/10/23 01:35:17;;;;;;;33.05;24.18;;;;;;;8.23;100.00;99130.63;1729792;81;21549;-69
2022/10/23 01:37:53;;;;;;;32.98;22.15;;;;;;;8.21;100.00;99129.00;1722254;82;20971;-69
2022/10/23 01:40:27;;;;;;;28.30;22.48;;;;;;;8.22;100.00;99129.39;1721139;82;20946;-69
2022/10/23 01:45:49;;;;;;;29.92;22.50;;;;;;;8.24;100.00;99135.36;1737637;81;21475;-69
2022/10/23 01:48:25;;;;;;;27.58;21.05;;;;;;;8.24;100.00;99126.30;1740082;81;20994;-69
2022/10/23 01:50:53;;;;;;;25.15;20.10;;;;;;;8.22;100.00;99126.80;1720781;81;20963;-69
2022/10/23 01:53:20;;;;;;;28.95;20.20;;;;;;;8.23;100.00;99126.75;1734619;82;20951;-69
2022/10/23 01:55:48;;;;;;;26.70;20.05;;;;;;;8.26;100.00;99129.67;1731746;81;21239;-69
2022/10/23 01:58:16;;;;;;;25.55;20.20;;;;;;;8.27;100.00;99129.63;1724299;81;21581;-69
2022/10/23 02:00:43;;;;;;;24.90;19.82;;;;;;;8.26;100.00;99129.67;1716516;81;21002;-69
2022/10/23 02:03:10;;;;;;;23.25;17.00;;;;;;;8.28;100.00;99124.84;1737590;82;20998;-69
2022/10/23 02:05:38;;;;;;;23.73;17.10;;;;;;;8.33;100.00;99123.41;1737835;81;21540;-69
2022/10/23 02:08:05;;;;;;;23.27;17.75;;;;;;;8.37;100.00;99114.62;1732635;81;22672;-69
2022/10/23 02:11:00;;;;;;;23.57;19.12;;;;;;;8.40;100.00;99111.04;1724782;82;21031;-69
2022/10/23 02:13:35;;;;;;;23.55;19.05;;;;;;;8.43;100.00;99106.59;1734220;81;21480;-69
2022/10/23 02:16:37;;;;;;;23.47;17.75;;;;;;;8.44;100.00;99118.64;1735966;81;21002;-69
2022/10/23 02:19:36;;;;;;;22.87;17.55;;;;;;;8.42;100.00;99116.56;1673272;84;21142;-69
2022/10/23 02:22:32;;;;;;;22.73;15.93;;;;;;;8.35;100.00;99121.61;1725177;82;21187;-69
2022/10/23 02:25:06;;;;;;;22.52;18.17;;;;;;;8.31;100.00;99123.87;1733317;81;20990;-69
2022/10/23 02:27:49;;;;;;;24.87;18.50;;;;;;;8.30;100.00;99129.52;1748845;81;21529;-69
2022/10/23 02:30:18;;;;;;;24.87;18.92;;;;;;;8.33;100.00;99127.30;1730625;81;21003;-69
2022/10/23 02:32:51;;;;;;;19.52;15.85;;;;;;;8.36;100.00;99119.41;1725153;82;20938;-69
2022/10/23 02:35:20;;;;;;;21.35;16.30;;;;;;;8.39;100.00;99122.34;1724340;81;21166;-69
2022/10/23 02:37:57;;;;;;;20.60;16.70;;;;;;;8.40;100.00;99120.95;1734216;81;20985;-69
2022/10/23 02:40:40;;;;;;;23.73;18.23;;;;;;;8.41;100.00;99116.61;1731880;81;20997;-69
2022/10/23 02:43:26;;;;;;;24.72;19.55;;;;;;;8.43;100.00;99118.25;1747174;81;20991;-69
2022/10/23 02:46:17;;;;;;;23.20;18.73;;;;;;;8.47;100.00;99119.83;1741072;81;21025;-69
2022/10/23 02:48:49;;;;;;;18.75;16.42;;;;;;;8.51;100.00;99120.56;1749161;81;21178;-69
2022/10/23 02:51:23;;;;;;;21.25;17.12;;;;;;;8.53;100.00;99120.05;1731086;81;21536;-69
2022/10/23 02:54:14;;;;;;;21.35;17.55;;;;;;;8.54;100.00;99117.85;1738279;82;20958;-69
2022/10/23 02:56:54;;;;;;;23.42;18.65;;;;;;;8.54;100.00;99122.59;1738069;81;20977;-69
2022/10/23 02:59:32;;;;;;;24.75;19.42;;;;;;;8.56;100.00;99113.01;1724320;82;20998;-69
2022/10/23 03:02:04;;;;;;;25.43;17.75;;;;;;;8.57;100.00;99122.92;1694751;83;21284;-70
2022/10/23 03:04:32;;;;;;;20.95;16.42;;;;;;;8.58;100.00;99119.43;1724878;81;20961;-70
2022/10/23 03:06:59;;;;;;;21.70;18.12;;;;;;;8.57;100.00;99113.85;1730226;82;21461;-70
2022/10/23 03:09:26;;;;;;;25.15;18.73;;;;;;;8.56;100.00;99120.78;1741838;80;21054;-70
2022/10/23 03:11:53;;;;;;;26.17;20.05;;;;;;;8.58;100.00;99117.69;1725231;81;21038;-69
2022/10/23 03:14:21;;;;;;;25.20;20.25;;;;;;;8.59;100.00;99112.86;1744913;82;21173;-70
2022/10/23 03:16:49;;;;;;;25.37;18.82;;;;;;;8.59;100.00;99115.94;1743222;81;20914;-70
2022/10/23 03:19:16;;;;;;;21.10;16.32;;;;;;;8.60;100.00;99113.70;1729205;81;21007;-70
2022/10/23 03:21:44;;;;;;;22.50;17.37;;;;;;;8.61;100.00;99111.05;1738431;82;20950;-70
2022/10/23 03:24:11;;;;;;;23.05;18.25;;;;;;;8.62;100.00;99110.16;1729509;81;21063;-70
2022/10/23 03:26:45;;;;;;;22.50;18.37;;;;;;;8.63;100.00;99111.00;1715836;82;21465;-70
2022/10/23 03:29:14;;;;;;;26.62;19.80;;;;;;;8.62;100.00;99108.86;1724687;82;21061;-69
2022/10/23 03:31:43;;;;;;;22.48;18.42;;;;;;;8.62;100.00;99106.27;1728176;81;21555;-70
2022/10/23 03:34:10;;;;;;;21.48;17.65;;;;;;;8.63;100.00;99105.81;1728060;82;21049;-70
2022/10/23 03:36:38;;;;;;;21.17;18.25;;;;;;;8.61;100.00;99104.58;1732807;81;20955;-70
2022/10/23 03:39:05;;;;;;;21.40;18.95;;;;;;;8.62;100.00;99102.37;1725830;81;21181;-70
2022/10/23 03:41:33;;;;;;;24.92;19.40;;;;;;;8.63;100.00;99103.22;1740714;82;21032;-69
2022/10/23 03:44:00;;;;;;;22.07;19.67;;;;;;;8.62;100.00;99107.56;1725788;81;21009;-69
2022/10/23 03:46:27;;;;;;;20.90;17.75;;;;;;;8.62;100.00;99104.13;1731372;82;21041;-69
2022/10/23 03:48:58;;;;;;;20.12;15.20;;;;;;;8.63;100.00;99102.77;1738700;81;21009;-69
2022/10/23 03:51:24;;;;;;;18.12;16.25;;;;;;;8.64;100.00;99099.73;1733187;82;21145;-70
2022/10/23 03:53:51;;;;;;;20.77;17.40;;;;;;;8.63;100.00;99091.55;1727846;81;20946;-70
2022/10/23 03:56:18;;;;;;;21.80;17.05;;;;;;;8.64;100.00;99095.84;1717394;82;21005;-70
2022/10/23 03:58:45;;;;;;;20.55;17.98;;;;;;;8.63;100.00;99104.06;1725283;82;20983;-70
2022/10/23 04:01:14;;;;;;;18.17;16.27;;;;;;;8.63;100.00;99109.25;1742911;82;21045;-70
2022/10/23 04:03:41;;;;;;;19.02;15.58;;;;;;;8.62;100.00;99108.86;1747915;81;21803;-69
2022/10/23 04:06:08;;;;;;;17.23;15.53;;;;;;;8.63;100.00;99103.22;1728597;82;21486;-70
2022/10/23 04:08:35;;;;;;;21.23;18.35;;;;;;;8.62;100.00;99106.27;1735072;81;21486;-70
2022/10/23 04:11:05;;;;;;;21.77;19.48;;;;;;;8.62;100.00;99104.13;1724013;80;21163;-69
2022/10/23 04:13:35;;;;;;;24.70;20.15;;;;;;;8.62;100.00;99097.64;1726167;81;21762;-69
2022/10/23 04:16:04;;;;;;;21.50;18.35;;;;;;;8.58;100.00;99103.88;1723024;81;21028;-69
2022/10/23 04:18:31;;;;;;;20.90;18.57;;;;;;;8.52;100.00;99101.52;1719850;81;21266;-70
2022/10/23 04:20:57;;;;;;;24.05;19.75;;;;;;;8.50;100.00;99103.31;1728711;82;21635;-70
2022/10/23 04:23:24;;;;;;;23.47;20.75;;;;;;;8.47;100.00;99102.14;1722230;81;21021;-70
2022/10/23 04:25:51;;;;;;;22.20;19.48;;;;;;;8.46;100.00;99104.34;1734054;82;21002;-70
2022/10/23 04:28:19;;;;;;;19.42;17.37;;;;;;;8.49;100.00;99101.63;1695610;82;21518;-70
2022/10/23 04:30:46;;;;;;;18.52;16.50;;;;;;;8.51;100.00;99092.05;1735180;81;21015;-69
2022/10/23 04:33:13;;;;;;;20.70;18.50;;;;;;;8.54;100.00;99094.52;1727596;82;21007;-70
2022/10/23 04:35:39;;;;;;;20.25;17.98;;;;;;;8.58;100.00;99090.47;1730769;81;20959;-70
2022/10/23 04:38:06;;;;;;;23.50;19.02;;;;;;;8.62;100.00;99092.45;1735568;81;21013;-70
2022/10/23 04:40:33;;;;;;;23.87;19.95;;;;;;;8.64;100.00;99092.80;1744659;81;22048;-70
2022/10/23 04:43:00;;;;;;;21.77;18.70;;;;;;;8.68;100.00;99096.11;1729593;81;21492;-70
2022/10/23 04:45:29;;;;;;;20.12;16.93;;;;;;;8.71;100.00;99098.59;1737182;81;21002;-69
2022/10/23 04:47:55;;;;;;;19.40;16.97;;;;;;;8.74;100.00;99091.14;1729487;81;21045;-69
2022/10/23 04:50:23;;;;;;;20.05;17.87;;;;;;;8.73;100.00;99094.19;1710043;81;21002;-70
2022/10/23 04:53:15;;;;;;;21.17;18.90;;;;;;;8.71;100.00;99096.00;1729037;81;20930;-70
2022/10/23 04:56:00;;;;;;;18.10;16.17;;;;;;;8.70;100.00;99102.53;1748523;81;20954;-70
2022/10/23 04:58:31;;;;;;;19.12;15.90;;;;;;;8.71;100.00;99101.18;1733862;81;20966;-69
2022/10/23 05:00:58;;;;;;;20.40;16.45;;;;;;;8.75;100.00;99096.72;1749416;82;20990;-70
2022/10/23 05:03:26;;;;;;;20.37;17.52;;;;;;;8.78;100.00;99100.50;1729331;81;21017;-70
2022/10/23 05:05:54;;;;;;;23.50;17.02;;;;;;;8.79;100.00;99097.00;1722930;81;21139;-70
2022/10/23 05:08:23;;;;;;;19.52;16.12;;;;;;;8.78;100.00;99101.34;1733413;81;20991;-70
2022/10/23 05:11:01;;;;;;;18.37;15.15;;;;;;;8.77;100.00;99102.24;1730169;81;20995;-69
2022/10/23 05:13:28;;;;;;;21.77;17.12;;;;;;;8.76;100.00;99099.26;1721587;82;21892;-70
2022/10/23 05:15:58;;;;;;;22.42;19.75;;;;;;;8.77;100.00;99101.40;1730624;81;20999;-70
2022/10/23 05:18:41;;;;;;;27.82;21.20;;;;;;;8.73;100.00;99101.97;1741639;82;20982;-70
2022/10/23 05:21:13;;;;;;;21.97;17.25;;;;;;;8.69;100.00;99105.58;1733343;82;20961;-70
2022/10/23 05:23:41;;;;;;;20.15;16.52;;;;;;;8.68;100.00;99102.59;1731386;82;20942;-70
2022/10/23 05:26:08;;;;;;;21.27;17.98;;;;;;;8.70;100.00;99099.95;1735882;81;21002;-70
2022/10/23 05:28:37;;;;;;;23.55;19.17;;;;;;;8.69;100.00;99104.28;1737245;81;21616;-70
2022/10/23 05:31:04;;;;;;;25.05;19.45;;;;;;;8.70;100.00;99102.09;1719001;81;22039;-70
2022/10/23 05:33:33;;;;;;;20.75;18.05;;;;;;;8.72;100.00;99104.63;1698045;82;20962;-69
2022/10/23 05:36:02;;;;;;;20.00;17.48;;;;;;;8.72;100.00;99105.91;1727388;82;21028;-71
2022/10/23 05:38:31;;;;;;;18.40;16.02;;;;;;;8.74;100.00;99109.30;1727314;82;20958;-71
2022/10/23 05:40:59;;;;;;;26.73;20.65;;;;;;;8.76;100.00;99109.63;1739471;82;21417;-70
2022/10/23 05:43:29;;;;;;;24.60;18.98;;;;;;;8.75;100.00;99117.47;1724705;81;21947;-71
2022/10/23 05:46:05;;;;;;;26.10;18.07;;;;;;;8.77;100.00;99119.55;1722245;82;21058;-69
2022/10/23 05:48:50;;;;;;;19.20;17.12;;;;;;;8.81;100.00;99126.28;1729275;81;20950;-69
2022/10/23 05:51:21;;;;;;;21.40;17.77;;;;;;;8.84;100.00;99117.08;1736186;82;20994;-69
2022/10/23 05:54:00;;;;;;;24.82;19.73;;;;;;;8.87;100.00;99127.34;1699425;82;20956;-69
2022/10/23 05:56:31;;;;;;;25.17;20.45;;;;;;;8.90;100.00;99122.88;1740857;81;21256;-69
2022/10/23 05:59:04;;;;;;;23.92;19.62;;;;;;;8.92;100.00;99126.71;1730462;81;21530;-69
2022/10/23 06:01:51;;;;;;;20.30;17.75;;;;;;;8.97;100.00;99127.38;1725603;81;20974;-69
2022/10/23 06:04:19;;;;;;;26.85;20.57;;;;;;;9.02;100.00;99125.42;1730105;82;21022;-69
2022/10/23 06:07:02;;;;;;;26.02;20.75;;;;;;;9.04;100.00;99126.66;1724679;81;20938;-69
2022/10/23 06:09:29;;;;;;;22.02;19.67;;;;;;;9.05;100.00;99129.19;1732011;81;21277;-69
2022/10/23 06:11:57;;;;;;;24.15;19.25;;;;;;;9.10;100.00;99122.52;1742988;82;21053;-69
2022/10/23 06:14:25;;;;;;;18.82;16.82;;;;;;;9.14;100.00;99128.83;1747785;81;21002;-69
2022/10/23 06:16:54;;;;;;;24.30;18.70;;;;;;;9.16;100.00;99126.17;1735226;82;21039;-69
2022/10/23 06:19:21;;;;;;;22.75;18.90;;;;;;;9.17;100.00;99124.81;1743899;81;21013;-69
2022/10/23 06:21:50;;;;;;;26.25;20.65;;;;;;;9.19;100.00;99131.24;1749160;81;21109;-69
2022/10/23 06:24:17;;;;;;;22.62;18.80;;;;;;;9.22;100.00;99124.60;1736960;81;20999;-70
2022/10/23 06:26:45;;;;;;;21.95;18.23;;;;;;;9.23;100.00;99135.38;1732171;81;20990;-70
2022/10/23 06:29:20;;;;;;;25.00;19.40;;;;;;;9.21;100.00;99126.35;1724624;82;20998;-69
2022/10/23 06:31:47;;;;;;;24.37;20.72;;;;;;;9.19;100.00;99128.65;1725673;82;21065;-69
2022/10/23 06:34:14;;;;;;;28.27;20.30;;;;;;;9.18;100.00;99131.70;1736130;81;21235;-69
2022/10/23 06:36:41;;;;;;;23.12;17.65;;;;;;;9.18;100.00;99126.50;1746834;81;20982;-70
2022/10/23 06:39:09;;;;;;;19.17;16.85;;;;;;;9.21;100.00;99128.95;1720561;81;20948;-69
2022/10/23 06:41:40;;;;;;;21.60;17.60;;;;;;;9.23;100.00;99129.73;1738585;82;21006;-70
2022/10/23 06:44:09;;;;;;;22.60;20.10;;;;;;;9.25;100.00;99129.22;1742962;81;21062;-70
2022/10/23 06:46:40;;;;;;;24.65;19.67;;;;;;;9.30;100.00;99119.95;1739034;82;21892;-70
2022/10/23 06:49:25;;;;;;;19.15;17.25;;;;;;;9.33;100.00;99117.23;1734534;81;21071;-70
2022/10/23 06:51:52;;;;;;;20.65;17.50;;;;;;;9.41;100.00;99119.48;1732633;82;21411;-70
2022/10/23 06:54:22;;;;;;;22.50;17.67;;;;;;;9.46;100.00;99120.14;1737970;82;21113;-69
2022/10/23 06:56:48;;;;;;;19.95;17.95;;;;;;;9.51;100.00;99124.23;1743581;82;20958;-69
2022/10/23 06:59:18;;;;;;;22.37;19.98;;;;;;;9.55;100.00;99121.06;1736804;82;21159;-70
2022/10/23 07:01:45;;;;;;;18.25;16.27;;;;;;;9.60;100.00;99121.23;1722057;81;21502;-70
2022/10/23 07:04:13;;;;;;;18.37;16.23;;;;;;;9.63;100.00;99121.56;1733445;81;21469;-70
2022/10/23 07:06:41;;;;;;;19.52;16.70;;;;;;;9.66;100.00;99115.78;1735382;81;21033;-69
2022/10/23 07:09:08;;;;;;;22.35;19.57;;;;;;;9.74;100.00;99105.08;1736501;81;21592;-69
2022/10/23 07:11:55;;;;;;;19.02;16.97;;;;;;;9.82;100.00;99107.31;1743180;82;21029;-70
2022/10/23 07:14:23;;;;;;;22.48;20.20;;;;;;;9.90;100.00;99113.03;1694931;82;20963;-70
2022/10/23 07:16:50;;;;;;;21.68;15.85;;;;;;;9.89;100.00;99113.48;1733422;81;21069;-70
2022/10/23 07:19:18;;;;;;;22.58;18.87;;;;;;;9.87;100.00;99116.59;1735450;82;21002;-70
2022/10/23 07:21:56;;;;;;;20.82;18.57;;;;;;;9.83;100.00;99123.29;1733894;82;21042;-70
2022/10/23 07:24:24;;;;;;;25.90;20.27;;;;;;;9.80;100.00;99119.06;1727360;81;21526;-70
2022/10/23 07:26:53;;;;;;;24.52;19.62;;;;;;;9.80;100.00;99122.12;1743395;81;21014;-70
2022/10/23 07:29:22;;;;;;;20.75;17.82;;;;;;;9.79;100.00;99119.16;1740365;82;21435;-70
2022/10/23 07:31:48;;;;;;;23.02;20.45;;;;;;;9.78;100.00;99123.97;1727876;81;20973;-70
2022/10/23 07:34:26;;;;;;;27.55;21.87;;;;;;;9.77;100.00;99127.48;1729139;81;20942;-70
2022/10/23 07:36:55;;;;;;;27.77;21.97;;;;;;;9.80;100.00;99124.72;1735655;81;22057;-70
2022/10/23 07:39:22;;;;;;;26.12;19.98;;;;;;;9.81;100.00;99123.35;1734812;82;21415;-70
2022/10/23 07:41:52;;;;;;;20.85;17.30;;;;;;;9.82;100.00;99119.00;1732604;81;20959;-70
2022/10/23 07:44:19;;;;;;;23.07;16.45;;;;;;;9.85;100.00;99118.88;1730042;81;21006;-70
2022/10/23 07:46:47;;;;;;;21.62;16.35;;;;;;;9.88;100.00;99117.45;1729984;82;21666;-70
2022/10/23 07:49:14;;;;;;;22.15;17.52;;;;;;;9.91;100.00;99113.42;1724713;82;21239;-70
2022/10/23 07:51:41;;;;;;;21.10;17.05;;;;;;;9.94;100.00;99109.39;1725102;81;21010;-70
2022/10/23 07:54:12;;;;;;;19.48;15.72;;;;;;;10.03;100.00;99111.10;1727892;82;21014;-70
2022/10/23 07:56:43;;;;;;;20.95;18.05;;;;;;;10.11;100.00;99117.27;1733256;81;21648;-70
2022/10/23 07:59:13;;;;;;;27.55;20.45;;;;;;;10.18;100.00;99116.55;1742627;82;21057;-70
2022/10/23 08:01:42;;;;;;;25.68;20.90;;;;;;;10.24;100.00;99112.38;1733003;82;21051;-70
2022/10/23 08:04:09;;;;;;;20.77;16.85;;;;;;;10.35;100.00;99109.69;1710003;82;21518;-69
2022/10/23 08:06:37;;;;;;;18.12;15.48;;;;;;;10.49;100.00;99107.73;1739246;82;21034;-71
2022/10/23 08:09:05;;;;;;;20.15;16.73;;;;;;;10.59;100.00;99115.97;1734426;82;20986;-70
2022/10/23 08:11:34;;;;;;;21.15;18.07;;;;;;;10.62;100.00;99120.53;1724993;82;20963;-70
2022/10/23 08:14:03;;;;;;;24.05;19.95;;;;;;;10.67;100.00;99117.73;1727657;82;21913;-70
2022/10/23 08:16:33;;;;;;;24.23;19.50;;;;;;;10.69;100.00;99121.95;1737706;81;21497;-70
2022/10/23 08:19:04;;;;;;;23.12;20.35;;;;;;;10.72;100.00;99126.16;1731440;81;20950;-70
2022/10/23 08:21:33;;;;;;;24.27;21.65;;;;;;;10.77;100.00;99124.20;1727332;82;20987;-70
2022/10/23 08:24:04;;;;;;;29.55;26.35;;;;;;;10.83;100.00;99126.94;1725403;82;21053;-70
2022/10/23 08:26:31;;;;;;;24.47;20.85;;;;;;;10.86;100.00;99135.45;1719817;81;21266;-70
2022/10/23 08:28:58;;;;;;;20.65;17.15;;;;;;;10.89;100.00;99142.27;1728728;82;20990;-70
2022/10/23 08:31:25;;;;;;;20.02;16.17;;;;;;;10.89;100.00;99143.11;1741266;81;21206;-70
2022/10/23 08:34:10;;;;;;;19.23;16.45;;;;;;;10.87;100.00;99139.73;1736626;81;21585;-70
2022/10/23 08:36:38;;;;;;;22.22;17.92;;;;;;;10.85;100.00;99148.06;1726242;81;20947;-70
2022/10/23 08:39:05;;;;;;;22.00;17.48;;;;;;;10.85;100.00;99150.67;1731285;81;21866;-70
2022/10/23 08:41:41;;;;;;;19.23;16.12;;;;;;;10.91;100.00;99156.05;1723101;81;21425;-69
2022/10/23 08:44:51;;;;;;;20.52;15.58;;;;;;;10.95;100.00;99157.14;1725469;81;20966;-70
2022/10/23 08:47:42;;;;;;;20.75;16.62;;;;;;;10.98;100.00;99154.85;1714004;82;20999;-69
2022/10/23 08:50:42;;;;;;;25.92;17.17;;;;;;;10.99;100.00;99152.14;1730267;82;21092;-70
2022/10/23 08:53:40;;;;;;;18.67;14.83;;;;;;;11.01;100.00;99155.97;1721824;82;21934;-70
2022/10/23 08:56:27;;;;;;;19.20;15.25;;;;;;;11.05;100.00;99157.52;1723882;81;21034;-69
2022/10/23 08:59:31;;;;;;;23.07;16.25;;;;;;;11.13;100.00;99151.50;1729092;81;20964;-70
2022/10/23 09:02:23;;;;;;;19.37;14.63;;;;;;;11.27;100.00;99155.56;1742206;81;20989;-69
2022/10/23 09:04:51;;;;;;;19.05;15.55;;;;;;;11.40;100.00;99172.25;1736941;81;20943;-69
2022/10/23 09:07:55;;;;;;;18.75;14.53;;;;;;;11.48;100.00;99169.28;1738713;81;21135;-69
2022/10/23 09:10:45;;;;;;;19.15;15.43;;;;;;;11.55;100.00;99160.70;1732557;82;23703;-69
2022/10/23 09:13:32;;;;;;;19.37;15.78;;;;;;;11.64;100.00;99164.13;1709246;83;20980;-69
2022/10/23 09:16:14;;;;;;;20.08;16.25;;;;;;;11.63;100.00;99163.75;1724399;81;21096;-70
2022/10/23 09:18:42;;;;;;;19.15;14.47;;;;;;;11.64;100.00;99163.67;1721433;81;20966;-70
2022/10/23 09:21:09;;;;;;;19.48;16.23;;;;;;;11.69;100.00;99162.99;1734042;82;21235;-70
2022/10/23 09:23:36;;;;;;;21.07;16.55;;;;;;;11.72;100.00;99169.36;1736790;81;21005;-70
2022/10/23 09:26:15;;;;;;;19.00;15.10;;;;;;;11.78;100.00;99169.55;1743820;81;21025;-69
2022/10/23 09:28:50;;;;;;;14.73;13.05;;;;;;;11.84;100.00;99170.97;1732907;82;20958;-70
2022/10/23 09:31:18;;;;;;;17.52;12.98;;;;;;;11.91;100.00;99171.89;1729157;81;21015;-70
2022/10/23 09:33:59;;;;;;;20.23;17.02;;;;;;;11.97;100.00;99163.77;1732201;81;21133;-70
2022/10/23 09:36:28;;;;;;;19.92;15.60;;;;;;;12.06;100.00;99163.27;1745396;82;21504;-70
2022/10/23 09:38:57;;;;;;;20.37;16.20;;;;;;;12.14;100.00;99165.48;1747230;81;20990;-70
2022/10/23 09:41:37;;;;;;;15.23;12.50;;;;;;;12.17;100.00;99163.19;1728825;81;21047;-70
2022/10/23 09:44:25;;;;;;;15.13;12.45;;;;;;;12.21;100.00;99166.83;1735199;82;21403;-70
2022/10/23 09:47:10;;;;;;;14.68;13.10;;;;;;;12.21;100.00;99167.29;1740092;81;21168;-70
2022/10/23 09:49:40;;;;;;;19.62;14.40;;;;;;;12.20;100.00;99166.45;1730344;81;21474;-70
2022/10/23 09:52:15;;;;;;;15.75;13.10;;;;;;;12.25;100.00;99170.12;1736788;82;21010;-69
2022/10/23 09:54:56;;;;;;;14.70;11.65;;;;;;;12.31;100.00;99174.55;1741447;81;21414;-71
2022/10/23 09:57:35;;;;;;;18.85;15.20;;;;;;;12.33;100.00;99176.63;1732696;81;21470;-68
2022/10/23 10:00:15;;;;;;;15.65;13.83;;;;;;;12.32;100.00;99176.24;1730523;81;21261;-69
2022/10/23 10:05:29;;;;;;;16.45;11.00;;;;;;;12.27;100.00;99182.16;1732966;82;21517;-69
2022/10/23 10:08:09;;;;;;;15.53;13.10;;;;;;;12.19;100.00;99179.59;1736371;81;21413;-69
2022/10/23 10:10:56;;;;;;;14.03;11.57;;;;;;;12.14;100.00;99181.12;1741970;81;20996;-69
2022/10/23 10:13:54;;;;;;;15.55;13.08;;;;;;;12.17;100.00;99178.83;1730075;81;21176;-71
2022/10/23 10:16:45;;;;;;;16.15;12.10;;;;;;;12.22;100.00;99177.64;1732218;82;20994;-71
2022/10/23 10:19:38;;;;;;;14.10;11.88;;;;;;;12.28;100.00;99168.20;1727609;82;20951;-69
2022/10/23 10:22:34;;;;;;;12.95;11.63;;;;;;;12.32;100.00;99176.24;1731139;82;21558;-70
2022/10/23 10:25:12;;;;;;;12.50;10.78;;;;;;;12.34;100.00;99180.08;1719086;81;20958;-70
2022/10/23 10:28:12;;;;;;;13.50;9.90;;;;;;;12.30;100.00;99174.64;1725143;82;22118;-70
2022/10/23 10:31:00;;;;;;;11.48;10.28;;;;;;;12.30;100.00;99171.57;1672841;84;21030;-70
2022/10/23 10:33:50;;;;;;;12.15;10.43;;;;;;;12.35;100.00;99176.55;1728296;82;21478;-70
2022/10/23 10:36:43;;;;;;;12.90;9.20;;;;;;;12.38;100.00;99172.48;1724541;81;21520;-69
2022/10/23 10:39:43;;;;;;;10.38;8.73;;;;;;;12.39;100.00;99176.27;1661247;84;21143;-69
2022/10/23 10:42:31;;;;;;;11.75;9.85;;;;;;;12.37;100.00;99172.94;1719402;82;21106;-69
2022/10/23 10:45:18;;;;;;;10.78;9.35;;;;;;;12.36;100.00;99172.55;1734482;82;21006;-70
2022/10/23 10:48:07;;;;;;;10.25;9.20;;;;;;;12.37;100.00;99173.40;1744663;81;21081;-69
2022/10/23 10:50:41;;;;;;;10.45;9.05;;;;;;;12.37;100.00;99170.33;1741284;82;21422;-69
2022/10/23 10:53:34;;;;;;;20.23;15.50;;;;;;;12.37;100.00;99168.19;1748364;81;20958;-69
2022/10/23 10:56:01;;;;;;;13.90;10.35;;;;;;;12.36;100.00;99173.02;1736856;81;21157;-69
2022/10/23 10:58:51;;;;;;;11.80;9.55;;;;;;;12.36;100.00;99171.71;1741416;81;20994;-69
2022/10/23 11:01:35;;;;;;;10.15;9.15;;;;;;;12.37;100.00;99168.19;1674846;85;21047;-70
2022/10/23 11:04:42;;;;;;;10.80;9.70;;;;;;;12.39;100.00;99179.34;1721668;81;21026;-69
2022/10/23 11:07:13;;;;;;;10.90;9.73;;;;;;;12.39;100.00;99173.67;1684347;85;21456;-69
2022/10/23 11:09:41;;;;;;;10.63;9.15;;;;;;;12.37;100.00;99166.42;1703037;83;22064;-69
2022/10/23 11:12:18;;;;;;;10.20;9.05;;;;;;;12.38;100.00;99165.49;1706290;83;21049;-69
2022/10/23 11:14:45;;;;;;;11.70;10.20;;;;;;;12.38;100.00;99168.10;1671545;85;20986;-68
2022/10/23 11:17:37;;;;;;;11.12;9.88;;;;;;;12.41;100.00;99175.73;1703388;83;21041;-70
2022/10/23 11:20:27;;;;;;;10.85;9.23;;;;;;;12.43;100.00;99169.13;1732915;81;21636;-70
2022/10/23 11:23:08;;;;;;;8.93;7.62;;;;;;;12.42;100.00;99164.84;1744939;81;21542;-70
2022/10/23 11:25:59;;;;;;;9.45;8.48;;;;;;;12.40;100.00;99166.69;1650011;84;21021;-70
2022/10/23 11:28:47;;;;;;;9.55;8.30;;;;;;;12.37;100.00;99166.42;1699671;83;21034;-70
2022/10/23 11:31:59;;;;;;;10.48;8.63;;;;;;;12.36;100.00;99167.34;1719231;82;21712;-70
2022/10/23 11:35:04;;;;;;;9.33;7.65;;;;;;;12.38;100.00;99167.26;1729463;81;21074;-70
2022/10/23 11:37:31;;;;;;;8.20;7.40;;;;;;;12.39;100.00;99167.61;1676510;84;21160;-71
2022/10/23 11:40:07;;;;;;;7.53;6.42;;;;;;;12.36;100.00;99163.89;1703829;83;21553;-71
2022/10/23 11:42:42;;;;;;;8.80;7.15;;;;;;;12.37;100.00;99167.72;1710701;83;20979;-71
2022/10/23 11:45:28;;;;;;;7.75;6.58;;;;;;;12.40;100.00;99167.98;1717080;82;21026;-68
2022/10/23 11:48:16;;;;;;;7.33;6.62;;;;;;;12.41;100.00;99163.16;1641993;84;21142;-69
2022/10/23 11:50:50;;;;;;;7.87;6.78;;;;;;;12.42;100.00;99170.06;1744692;81;21240;-70
2022/10/23 11:53:37;;;;;;;8.38;7.42;;;;;;;12.38;100.00;99162.88;1655701;84;21208;-70
2022/10/23 11:56:14;;;;;;;7.45;6.45;;;;;;;12.37;100.00;99171.63;1728312;81;20950;-70